sensor_id;sensor_type;location;lat;lon;timestamp;pressure;altitude;pressure_sealevel;temperature;humidity
10476;BME280;26166;48.264;11.436;2023-03-14T00:01:46;94744.09;;;11.17;63.25
10476;BME280;26166;48.264;11.436;2023-03-14T00:04:47;94732.97;;;11.15;63.11
10476;BME280;26166;48.264;11.436;2023-03-14T00:07:47;94723.47;;;11.14;63.01
10476;BME280;26166;48.264;11.436;2023-03-14T00:10:47;94719.25;;;11.13;63.34
10476;BME280;26166;48.264;11.436;2023-03-14T00:13:48;94715.19;;;11.10;63.05
10476;BME280;26166;48.264;11.436;2023-03-14T00:16:48;94726.50;;;11.11;63.36
10476;BME280;26166;48.264;11.436;2023-03-14T00:19:49;94736.44;;;11.09;63.08
10476;BME280;26166;48.264;11.436;2023-03-14T00:22:52;94741.69;;;11.09;63.01
10476;BME280;26166;48.264;11.436;2023-03-14T00:25:52;94740.06;;;11.08;63.09
10476;BME280;26166;48.264;11.436;2023-03-14T00:28:53;94739.47;;;11.06;62.82
10476;BME280;26166;48.264;11.436;2023-03-14T00:31:53;94728.16;;;11.05;63.10
10476;BME280;26166;48.264;11.436;2023-03-14T00:34:53;94726.53;;;11.04;63.16
10476;BME280;26166;48.264;11.436;2023-03-14T00:37:54;94720.47;;;11.04;62.90
10476;BME280;26166;48.264;11.436;2023-03-14T00:40:54;94737.28;;;11.03;63.10
10476;BME280;26166;48.264;11.436;2023-03-14T00:43:54;94724.13;;;11.03;63.00
10476;BME280;26166;48.264;11.436;2023-03-14T00:46:54;94733.00;;;11.02;62.97
10476;BME280;26166;48.264;11.436;2023-03-14T00:49:55;94738.25;;;11.02;62.78
10476;BME280;26166;48.264;11.436;2023-03-14T00:52:55;94742.72;;;11.01;63.11
10476;BME280;26166;48.264;11.436;2023-03-14T00:55:55;94740.88;;;11.02;62.77
10476;BME280;26166;48.264;11.436;2023-03-14T00:58:55;94755.66;;;11.03;63.17
10476;BME280;26166;48.264;11.436;2023-03-14T01:01:56;94751.22;;;11.03;62.93
10476;BME280;26166;48.264;11.436;2023-03-14T01:04:56;94760.91;;;11.03;62.81
10476;BME280;26166;48.264;11.436;2023-03-14T01:07:56;94760.91;;;11.03;62.93
10476;BME280;26166;48.264;11.436;2023-03-14T01:10:57;94758.88;;;11.05;63.44
10476;BME280;26166;48.264;11.436;2023-03-14T01:13:57;94766.75;;;11.05;63.81
10476;BME280;26166;48.264;11.436;2023-03-14T01:16:58;94766.75;;;11.05;63.99
10476;BME280;26166;48.264;11.436;2023-03-14T01:20:00;94760.47;;;11.06;63.94
10476;BME280;26166;48.264;11.436;2023-03-14T01:23:01;94769.38;;;11.05;65.42
10476;BME280;26166;48.264;11.436;2023-03-14T01:26:01;94766.75;;;11.05;64.93
10476;BME280;26166;48.264;11.436;2023-03-14T01:29:02;94773.03;;;11.04;65.77
10476;BME280;26166;48.264;11.436;2023-03-14T01:32:03;94777.47;;;11.03;66.80
10476;BME280;26166;48.264;11.436;2023-03-14T01:35:03;94775.03;;;11.02;65.91
10476;BME280;26166;48.264;11.436;2023-03-14T01:38:04;94779.31;;;11.03;66.24
10476;BME280;26166;48.264;11.436;2023-03-14T01:41:04;94781.94;;;11.03;66.99
10476;BME280;26166;48.264;11.436;2023-03-14T01:44:05;94782.94;;;11.02;66.97
10476;BME280;26166;48.264;11.436;2023-03-14T01:47:06;94788.19;;;11.02;67.47
10476;BME280;26166;48.264;11.436;2023-03-14T01:50:06;94790.44;;;10.98;67.24
10476;BME280;26166;48.264;11.436;2023-03-14T01:53:08;94791.63;;;10.96;67.34
10476;BME280;26166;48.264;11.436;2023-03-14T01:56:09;94786.38;;;10.96;67.56
10476;BME280;26166;48.264;11.436;2023-03-14T01:59:11;94791.63;;;10.96;67.77
10476;BME280;26166;48.264;11.436;2023-03-14T02:02:12;94795.28;;;10.95;67.46
10476;BME280;26166;48.264;11.436;2023-03-14T02:05:14;94784.16;;;10.93;67.54
10476;BME280;26166;48.264;11.436;2023-03-14T02:08:19;94779.69;;;10.93;67.83
10476;BME280;26166;48.264;11.436;2023-03-14T02:11:19;94765.75;;;10.93;67.33
10476;BME280;26166;48.264;11.436;2023-03-14T02:14:28;94745.78;;;10.92;67.76
10476;BME280;26166;48.264;11.436;2023-03-14T02:17:30;94737.88;;;10.92;67.90
10476;BME280;26166;48.264;11.436;2023-03-14T02:26:38;94673.22;;;10.91;67.68
10476;BME280;26166;48.264;11.436;2023-03-14T02:30:23;94654.63;;;10.92;68.15
10476;BME280;26166;48.264;11.436;2023-03-14T02:33:07;94615.44;;;10.91;67.45
10476;BME280;26166;48.264;11.436;2023-03-14T02:36:09;94593.63;;;10.90;67.61
10476;BME280;26166;48.264;11.436;2023-03-14T02:39:14;94597.28;;;10.89;67.44
10476;BME280;26166;48.264;11.436;2023-03-14T02:42:16;94612.19;;;10.89;67.60
10476;BME280;26166;48.264;11.436;2023-03-14T02:51:26;94619.50;;;10.86;66.68
10476;BME280;26166;48.264;11.436;2023-03-14T02:54:27;94617.88;;;10.85;67.05
10476;BME280;26166;48.264;11.436;2023-03-14T02:57:27;94617.88;;;10.85;66.87
10476;BME280;26166;48.264;11.436;2023-03-14T03:00:27;94624.75;;;10.86;66.45
10476;BME280;26166;48.264;11.436;2023-03-14T03:03:28;94635.25;;;10.86;66.99
10476;BME280;26166;48.264;11.436;2023-03-14T03:06:28;94626.34;;;10.88;67.00
10476;BME280;26166;48.264;11.436;2023-03-14T03:09:28;94623.72;;;10.88;66.82
10476;BME280;26166;48.264;11.436;2023-03-14T03:12:28;94631.59;;;10.88;66.63
10476;BME280;26166;48.264;11.436;2023-03-14T03:15:29;94623.94;;;10.86;66.83
10476;BME280;26166;48.264;11.436;2023-03-14T03:18:29;94634.44;;;10.86;66.79
10476;BME280;26166;48.264;11.436;2023-03-14T03:21:29;94642.13;;;10.88;66.85
10476;BME280;26166;48.264;11.436;2023-03-14T03:24:30;94630.00;;;10.86;66.59
10476;BME280;26166;48.264;11.436;2023-03-14T03:27:30;94621.09;;;10.88;66.87
10476;BME280;26166;48.264;11.436;2023-03-14T03:30:31;94613.22;;;10.88;66.55
10476;BME280;26166;48.264;11.436;2023-03-14T03:33:32;94611.41;;;10.88;66.07
10476;BME280;26166;48.264;11.436;2023-03-14T03:36:32;94612.19;;;10.89;66.26
10476;BME280;26166;48.264;11.436;2023-03-14T03:39:33;94611.63;;;10.86;66.19
10476;BME280;26166;48.264;11.436;2023-03-14T03:42:33;94605.34;;;10.88;66.44
10476;BME280;26166;48.264;11.436;2023-03-14T03:45:34;94600.09;;;10.88;66.40
10476;BME280;26166;48.264;11.436;2023-03-14T03:48:34;94596.44;;;10.89;66.21
10476;BME280;26166;48.264;11.436;2023-03-14T03:51:34;94585.94;;;10.89;66.40
10476;BME280;26166;48.264;11.436;2023-03-14T03:54:36;94592.81;;;10.90;66.31
10476;BME280;26166;48.264;11.436;2023-03-14T03:57:36;94608.59;;;10.90;66.21
10476;BME280;26166;48.264;11.436;2023-03-14T04:00:36;94598.06;;;10.90;65.98
10476;BME280;26166;48.264;11.436;2023-03-14T04:03:36;94594.44;;;10.91;65.94
10476;BME280;26166;48.264;11.436;2023-03-14T04:06:38;94583.13;;;10.90;65.92
10476;BME280;26166;48.264;11.436;2023-03-14T04:09:39;94587.56;;;10.90;65.58
10476;BME280;26166;48.264;11.436;2023-03-14T04:12:39;94596.25;;;10.90;65.53
10476;BME280;26166;48.264;11.436;2023-03-14T04:15:39;94601.50;;;10.90;65.71
10476;BME280;26166;48.264;11.436;2023-03-14T04:18:39;94589.16;;;10.91;65.72
10476;BME280;26166;48.264;11.436;2023-03-14T04:21:39;94590.19;;;10.90;65.34
10476;BME280;26166;48.264;11.436;2023-03-14T04:24:44;94578.66;;;10.91;65.63
10476;BME280;26166;48.264;11.436;2023-03-14T04:27:44;94584.94;;;10.90;65.17
10476;BME280;26166;48.264;11.436;2023-03-14T04:30:44;94585.53;;;10.92;65.13
10476;BME280;26166;48.264;11.436;2023-03-14T04:33:45;94575.00;;;10.92;65.17
10476;BME280;26166;48.264;11.436;2023-03-14T04:36:45;94583.91;;;10.91;65.31
10476;BME280;26166;48.264;11.436;2023-03-14T04:39:45;94577.06;;;10.90;65.18
10476;BME280;26166;48.264;11.436;2023-03-14T04:42:46;94567.13;;;10.92;65.18
10476;BME280;26166;48.264;11.436;2023-03-14T04:45:46;94563.94;;;10.90;64.92
10476;BME280;26166;48.264;11.436;2023-03-14T04:48:46;94569.97;;;10.90;65.19
10476;BME280;26166;48.264;11.436;2023-03-14T04:51:46;94571.00;;;10.89;64.85
10476;BME280;26166;48.264;11.436;2023-03-14T04:54:47;94557.88;;;10.89;65.20
10476;BME280;26166;48.264;11.436;2023-03-14T04:57:47;94552.41;;;10.91;65.10
10476;BME280;26166;48.264;11.436;2023-03-14T05:00:47;94541.88;;;10.91;64.47
10476;BME280;26166;48.264;11.436;2023-03-14T05:03:47;94522.88;;;10.89;64.75
10476;BME280;26166;48.264;11.436;2023-03-14T05:06:47;94522.88;;;10.89;64.73
10476;BME280;26166;48.264;11.436;2023-03-14T05:09:48;94529.78;;;10.90;64.57
10476;BME280;26166;48.264;11.436;2023-03-14T05:12:48;94536.03;;;10.89;64.57
10476;BME280;26166;48.264;11.436;2023-03-14T05:15:48;94528.59;;;10.85;64.57
10476;BME280;26166;48.264;11.436;2023-03-14T05:18:50;94539.47;;;10.89;64.17
10476;BME280;26166;48.264;11.436;2023-03-14T05:21:50;94529.97;;;10.88;64.28
10476;BME280;26166;48.264;11.436;2023-03-14T05:24:50;94519.69;;;10.86;64.12
10476;BME280;26166;48.264;11.436;2023-03-14T05:27:53;94514.44;;;10.86;64.25
10476;BME280;26166;48.264;11.436;2023-03-14T05:30:53;94517.06;;;10.86;64.23
10476;BME280;26166;48.264;11.436;2023-03-14T05:33:53;94516.44;;;10.84;64.37
10476;BME280;26166;48.264;11.436;2023-03-14T05:36:53;94522.72;;;10.83;63.92
10476;BME280;26166;48.264;11.436;2023-03-14T05:39:54;94512.81;;;10.85;63.82
10476;BME280;26166;48.264;11.436;2023-03-14T05:42:55;94506.97;;;10.83;64.25
10476;BME280;26166;48.264;11.436;2023-03-14T05:45:55;94513.81;;;10.84;64.18
10476;BME280;26166;48.264;11.436;2023-03-14T05:48:55;94508.78;;;10.83;64.15
10476;BME280;26166;48.264;11.436;2023-03-14T05:51:55;94511.19;;;10.84;63.82
10476;BME280;26166;48.264;11.436;2023-03-14T05:54:55;94501.50;;;10.85;63.87
10476;BME280;26166;48.264;11.436;2023-03-14T05:57:56;94505.13;;;10.84;63.76
10476;BME280;26166;48.264;11.436;2023-03-14T06:00:56;94496.44;;;10.83;63.81
10476;BME280;26166;48.264;11.436;2023-03-14T06:03:56;94500.09;;;10.82;64.03
10476;BME280;26166;48.264;11.436;2023-03-14T06:06:56;94497.47;;;10.82;63.69
10476;BME280;26166;48.264;11.436;2023-03-14T06:09:56;94498.28;;;10.83;63.86
10476;BME280;26166;48.264;11.436;2023-03-14T06:12:58;94492.22;;;10.82;63.69
10476;BME280;26166;48.264;11.436;2023-03-14T06:15:58;94497.47;;;10.82;63.63
10476;BME280;26166;48.264;11.436;2023-03-14T06:18:58;94490.63;;;10.81;63.52
10476;BME280;26166;48.264;11.436;2023-03-14T06:21:58;94494.84;;;10.82;63.54
10476;BME280;26166;48.264;11.436;2023-03-14T06:24:59;94493.44;;;10.80;64.01
10476;BME280;26166;48.264;11.436;2023-03-14T06:27:59;94497.09;;;10.79;63.53
10476;BME280;26166;48.264;11.436;2023-03-14T06:30:59;94487.38;;;10.79;63.91
10476;BME280;26166;48.264;11.436;2023-03-14T06:34:00;94482.13;;;10.79;63.79
10476;BME280;26166;48.264;11.436;2023-03-14T06:37:00;94474.25;;;10.79;64.08
10476;BME280;26166;48.264;11.436;2023-03-14T06:40:00;94466.38;;;10.79;63.73
10476;BME280;26166;48.264;11.436;2023-03-14T06:43:00;94458.94;;;10.76;64.28
10476;BME280;26166;48.264;11.436;2023-03-14T06:46:01;94463.16;;;10.77;63.90
10476;BME280;26166;48.264;11.436;2023-03-14T06:49:01;94465.19;;;10.75;63.78
10476;BME280;26166;48.264;11.436;2023-03-14T06:52:01;94470.06;;;10.72;64.12
10476;BME280;26166;48.264;11.436;2023-03-14T06:55:01;94479.75;;;10.71;64.01
10476;BME280;26166;48.264;11.436;2023-03-14T06:58:02;94488.06;;;10.68;64.18
10476;BME280;26166;48.264;11.436;2023-03-14T07:01:02;94488.25;;;10.67;64.22
10476;BME280;26166;48.264;11.436;2023-03-14T07:04:02;94500.59;;;10.66;64.49
10476;BME280;26166;48.264;11.436;2023-03-14T07:07:02;94496.13;;;10.67;64.40
10476;BME280;26166;48.264;11.436;2023-03-14T07:10:03;94502.22;;;10.67;64.64
10476;BME280;26166;48.264;11.436;2023-03-14T07:13:03;94507.25;;;10.69;64.53
10476;BME280;26166;48.264;11.436;2023-03-14T07:16:04;94509.66;;;10.70;64.21
10476;BME280;26166;48.264;11.436;2023-03-14T07:19:04;94518.56;;;10.69;64.51
10476;BME280;26166;48.264;11.436;2023-03-14T07:22:05;94503.03;;;10.68;64.30
10476;BME280;26166;48.264;11.436;2023-03-14T07:25:05;94501.19;;;10.68;64.45
10476;BME280;26166;48.264;11.436;2023-03-14T07:28:05;94508.06;;;10.69;64.39
10476;BME280;26166;48.264;11.436;2023-03-14T07:31:06;94508.06;;;10.69;64.13
10476;BME280;26166;48.264;11.436;2023-03-14T07:34:06;94513.31;;;10.69;63.99
10476;BME280;26166;48.264;11.436;2023-03-14T07:37:06;94510.91;;;10.68;64.37
10476;BME280;26166;48.264;11.436;2023-03-14T07:40:06;94506.84;;;10.65;64.16
10476;BME280;26166;48.264;11.436;2023-03-14T07:43:07;94494.75;;;10.64;64.14
10476;BME280;26166;48.264;11.436;2023-03-14T07:46:07;94490.53;;;10.63;64.03
10476;BME280;26166;48.264;11.436;2023-03-14T07:49:07;94485.06;;;10.65;64.17
10476;BME280;26166;48.264;11.436;2023-03-14T07:52:07;94486.88;;;10.64;63.91
10476;BME280;26166;48.264;11.436;2023-03-14T07:55:08;94485.84;;;10.65;63.82
10476;BME280;26166;48.264;11.436;2023-03-14T07:58:08;94483.84;;;10.67;63.68
10476;BME280;26166;48.264;11.436;2023-03-14T08:01:08;94495.31;;;10.66;63.91
10476;BME280;26166;48.264;11.436;2023-03-14T08:04:09;94491.72;;;10.67;64.17
10476;BME280;26166;48.264;11.436;2023-03-14T08:07:09;94493.72;;;10.65;64.06
10476;BME280;26166;48.264;11.436;2023-03-14T08:10:09;94491.09;;;10.65;64.23
10476;BME280;26166;48.264;11.436;2023-03-14T08:13:10;94513.13;;;10.64;63.90
10476;BME280;26166;48.264;11.436;2023-03-14T08:16:10;94510.50;;;10.64;64.13
10476;BME280;26166;48.264;11.436;2023-03-14T08:19:10;94511.72;;;10.61;63.91
10476;BME280;26166;48.264;11.436;2023-03-14T08:22:10;94509.69;;;10.64;63.95
10476;BME280;26166;48.264;11.436;2023-03-14T08:25:11;94504.44;;;10.64;64.17
10476;BME280;26166;48.264;11.436;2023-03-14T08:28:11;94510.91;;;10.61;64.10
10476;BME280;26166;48.264;11.436;2023-03-14T08:31:12;94509.09;;;10.61;64.09
10476;BME280;26166;48.264;11.436;2023-03-14T08:34:12;94514.56;;;10.60;64.04
10476;BME280;26166;48.264;11.436;2023-03-14T08:37:12;94514.56;;;10.60;63.88
10476;BME280;26166;48.264;11.436;2023-03-14T08:40:12;94510.09;;;10.60;64.25
10476;BME280;26166;48.264;11.436;2023-03-14T08:43:13;94511.94;;;10.60;63.84
10476;BME280;26166;48.264;11.436;2023-03-14T08:46:13;94524.03;;;10.61;64.00
10476;BME280;26166;48.264;11.436;2023-03-14T08:49:13;94517.19;;;10.60;64.20
10476;BME280;26166;48.264;11.436;2023-03-14T08:52:14;94522.44;;;10.60;63.92
10476;BME280;26166;48.264;11.436;2023-03-14T08:55:16;94525.88;;;10.60;63.79
10476;BME280;26166;48.264;11.436;2023-03-14T08:58:16;94527.47;;;10.61;63.70
10476;BME280;26166;48.264;11.436;2023-03-14T09:01:16;94528.28;;;10.62;63.92
10476;BME280;26166;48.264;11.436;2023-03-14T09:04:18;94522.03;;;10.63;63.31
10476;BME280;26166;48.264;11.436;2023-03-14T09:07:19;94529.09;;;10.63;63.54
10476;BME280;26166;48.264;11.436;2023-03-14T09:10:19;94516.78;;;10.63;63.57
10476;BME280;26166;48.264;11.436;2023-03-14T09:13:19;94523.84;;;10.63;63.38
10476;BME280;26166;48.264;11.436;2023-03-14T09:16:19;94523.84;;;10.63;63.50
10476;BME280;26166;48.264;11.436;2023-03-14T09:19:20;94515.75;;;10.64;63.09
10476;BME280;26166;48.264;11.436;2023-03-14T09:22:20;94522.84;;;10.64;63.36
10476;BME280;26166;48.264;11.436;2023-03-14T09:25:21;94514.16;;;10.63;63.17
10476;BME280;26166;48.264;11.436;2023-03-14T09:28:21;94503.66;;;10.63;63.39
10476;BME280;26166;48.264;11.436;2023-03-14T09:31:21;94505.25;;;10.64;63.17
10476;BME280;26166;48.264;11.436;2023-03-14T09:34:22;94498.41;;;10.63;62.97
10476;BME280;26166;48.264;11.436;2023-03-14T09:37:22;94497.38;;;10.64;62.86
10476;BME280;26166;48.264;11.436;2023-03-14T09:40:22;94511.31;;;10.65;62.75
10476;BME280;26166;48.264;11.436;2023-03-14T09:43:23;94498.97;;;10.65;62.54
10476;BME280;26166;48.264;11.436;2023-03-14T09:46:24;94501.59;;;10.65;62.73
10476;BME280;26166;48.264;11.436;2023-03-14T09:49:27;94504.22;;;10.65;62.58
10476;BME280;26166;48.264;11.436;2023-03-14T09:52:29;94501.59;;;10.65;62.33
10476;BME280;26166;48.264;11.436;2023-03-14T09:55:30;94501.59;;;10.65;62.43
10476;BME280;26166;48.264;11.436;2023-03-14T09:58:31;94504.22;;;10.65;62.30
10476;BME280;26166;48.264;11.436;2023-03-14T10:01:32;94494.34;;;10.67;62.28
10476;BME280;26166;48.264;11.436;2023-03-14T10:04:33;94495.13;;;10.68;61.95
10476;BME280;26166;48.264;11.436;2023-03-14T10:07:34;94501.19;;;10.68;61.93
10476;BME280;26166;48.264;11.436;2023-03-14T10:10:34;94493.91;;;10.70;61.10
10476;BME280;26166;48.264;11.436;2023-03-14T10:13:34;94490.25;;;10.71;60.96
10476;BME280;26166;48.264;11.436;2023-03-14T10:16:36;94492.88;;;10.71;60.61
10476;BME280;26166;48.264;11.436;2023-03-14T10:19:37;94483.78;;;10.74;60.51
10476;BME280;26166;48.264;11.436;2023-03-14T10:22:37;94488.81;;;10.75;60.43
10476;BME280;26166;48.264;11.436;2023-03-14T10:25:42;94484.19;;;10.77;59.71
10476;BME280;26166;48.264;11.436;2023-03-14T10:28:44;94476.06;;;10.79;59.81
10476;BME280;26166;48.264;11.436;2023-03-14T10:31:51;94477.69;;;10.80;59.76
10476;BME280;26166;48.264;11.436;2023-03-14T10:38:04;94485.94;;;10.83;59.58
10476;BME280;26166;48.264;11.436;2023-03-14T10:41:14;94488.16;;;10.86;59.81
10476;BME280;26166;48.264;11.436;2023-03-14T10:44:16;94498.66;;;10.86;59.59
10476;BME280;26166;48.264;11.436;2023-03-14T10:47:21;94480.84;;;10.89;59.30
10476;BME280;26166;48.264;11.436;2023-03-14T10:50:24;94477.25;;;10.90;59.05
10476;BME280;26166;48.264;11.436;2023-03-14T10:53:24;94481.63;;;10.96;58.67
10476;BME280;26166;48.264;11.436;2023-03-14T10:56:25;94482.81;;;11.00;58.02
10476;BME280;26166;48.264;11.436;2023-03-14T10:59:32;94484.00;;;11.04;58.14
10476;BME280;26166;48.264;11.436;2023-03-14T11:02:49;94486.22;;;11.07;57.36
10476;BME280;26166;48.264;11.436;2023-03-14T11:05:56;94492.63;;;11.11;57.67
10476;BME280;26166;48.264;11.436;2023-03-14T11:08:58;94485.38;;;11.13;57.50
10476;BME280;26166;48.264;11.436;2023-03-14T11:15:40;94475.44;;;11.15;57.57
10476;BME280;26166;48.264;11.436;2023-03-14T11:28:46;94462.41;;;11.27;57.17
10476;BME280;26166;48.264;11.436;2023-03-14T11:35:03;94474.03;;;11.37;57.08
10476;BME280;26166;48.264;11.436;2023-03-14T11:44:32;94459.63;;;11.47;57.25
10476;BME280;26166;48.264;11.436;2023-03-14T11:47:37;94454.56;;;11.45;56.96
10476;BME280;26166;48.264;11.436;2023-03-14T11:50:39;94465.88;;;11.46;56.78
10476;BME280;26166;48.264;11.436;2023-03-14T11:56:51;94436.63;;;11.42;57.13
10476;BME280;26166;48.264;11.436;2023-03-14T12:09:12;94460.63;;;11.46;55.95
10476;BME280;26166;48.264;11.436;2023-03-14T12:12:14;94448.09;;;11.48;55.04
10476;BME280;26166;48.264;11.436;2023-03-14T12:15:19;94448.09;;;11.48;55.09
10476;BME280;26166;48.264;11.436;2023-03-14T12:18:27;94453.94;;;11.50;54.93
10476;BME280;26166;48.264;11.436;2023-03-14T12:21:43;94452.09;;;11.50;55.06
10476;BME280;26166;48.264;11.436;2023-03-14T12:24:47;94453.72;;;11.51;55.08
10476;BME280;26166;48.264;11.436;2023-03-14T12:28:02;94462.41;;;11.52;55.39
10476;BME280;26166;48.264;11.436;2023-03-14T12:40:30;94445.09;;;11.62;55.52
10476;BME280;26166;48.264;11.436;2023-03-14T12:43:33;94461.69;;;11.63;55.86
10476;BME280;26166;48.264;11.436;2023-03-14T12:46:34;94458.03;;;11.64;55.49
10476;BME280;26166;48.264;11.436;2023-03-14T12:49:35;94466.16;;;11.62;55.60
10476;BME280;26166;48.264;11.436;2023-03-14T12:55:49;94467.81;;;11.57;55.42
10476;BME280;26166;48.264;11.436;2023-03-14T13:01:59;94464.91;;;11.47;55.56
10476;BME280;26166;48.264;11.436;2023-03-14T13:11:06;94484.38;;;11.39;55.79
10476;BME280;26166;48.264;11.436;2023-03-14T13:14:08;94476.66;;;11.37;56.39
10476;BME280;26166;48.264;11.436;2023-03-14T13:17:13;94479.31;;;11.37;56.12
10476;BME280;26166;48.264;11.436;2023-03-14T13:20:16;94495.53;;;11.34;56.39
10476;BME280;26166;48.264;11.436;2023-03-14T13:23:22;94508.84;;;11.33;56.57
10476;BME280;26166;48.264;11.436;2023-03-14T13:26:23;94505.44;;;11.32;56.59
10476;BME280;26166;48.264;11.436;2023-03-14T13:29:28;94480.59;;;11.28;57.50
10476;BME280;26166;48.264;11.436;2023-03-14T13:32:29;94516.00;;;11.26;58.84
10476;BME280;26166;48.264;11.436;2023-03-14T13:35:29;94542.94;;;11.21;59.13
10476;BME280;26166;48.264;11.436;2023-03-14T13:38:37;94552.25;;;11.17;59.93
10476;BME280;26166;48.264;11.436;2023-03-14T13:41:38;94547.41;;;11.14;60.02
10476;BME280;26166;48.264;11.436;2023-03-14T13:44:39;94560.16;;;11.10;60.12
10476;BME280;26166;48.264;11.436;2023-03-14T13:47:39;94564.81;;;11.08;59.88
10476;BME280;26166;48.264;11.436;2023-03-14T13:50:44;94566.25;;;11.04;59.62
10476;BME280;26166;48.264;11.436;2023-03-14T13:53:47;94594.38;;;11.04;59.56
10476;BME280;26166;48.264;11.436;2023-03-14T13:56:58;94581.84;;;10.99;59.37
10476;BME280;26166;48.264;11.436;2023-03-14T14:00:16;94599.84;;;10.96;59.28
10476;BME280;26166;48.264;11.436;2023-03-14T14:03:17;94606.31;;;10.93;59.33
10476;BME280;26166;48.264;11.436;2023-03-14T14:06:27;94612.81;;;10.91;59.97
10476;BME280;26166;48.264;11.436;2023-03-14T14:09:29;94619.09;;;10.90;59.92
10476;BME280;26166;48.264;11.436;2023-03-14T14:12:31;94627.97;;;10.89;60.10
10476;BME280;26166;48.264;11.436;2023-03-14T14:15:33;94631.81;;;10.86;60.28
10476;BME280;26166;48.264;11.436;2023-03-14T14:18:36;94659.31;;;10.83;60.49
10476;BME280;26166;48.264;11.436;2023-03-14T14:21:37;94641.53;;;10.85;60.26
10476;BME280;26166;48.264;11.436;2023-03-14T14:24:38;94649.81;;;10.82;60.18
10476;BME280;26166;48.264;11.436;2023-03-14T14:27:39;94670.81;;;10.82;60.51
10476;BME280;26166;48.264;11.436;2023-03-14T14:30:40;94676.09;;;10.82;60.39
10476;BME280;26166;48.264;11.436;2023-03-14T14:33:42;94691.03;;;10.75;60.53
10476;BME280;26166;48.264;11.436;2023-03-14T14:36:42;94696.28;;;10.75;60.22
10476;BME280;26166;48.264;11.436;2023-03-14T14:39:44;94690.66;;;10.72;60.25
10476;BME280;26166;48.264;11.436;2023-03-14T14:42:45;94706.81;;;10.69;60.43
10476;BME280;26166;48.264;11.436;2023-03-14T14:45:47;94711.84;;;10.70;60.47
10476;BME280;26166;48.264;11.436;2023-03-14T14:48:48;94732.69;;;10.72;60.78
10476;BME280;26166;48.264;11.436;2023-03-14T14:51:51;94726.00;;;10.69;61.57
10476;BME280;26166;48.264;11.436;2023-03-14T14:57:54;94734.69;;;10.70;62.41
10476;BME280;26166;48.264;11.436;2023-03-14T15:01:02;94746.44;;;10.67;62.09
10476;BME280;26166;48.264;11.436;2023-03-14T15:04:04;94760.53;;;10.66;61.75
10476;BME280;26166;48.264;11.436;2023-03-14T15:07:10;94776.72;;;10.63;61.99
10476;BME280;26166;48.264;11.436;2023-03-14T15:10:11;94796.94;;;10.63;62.40
10476;BME280;26166;48.264;11.436;2023-03-14T15:13:12;94802.56;;;10.59;63.02
10476;BME280;26166;48.264;11.436;2023-03-14T15:16:13;94813.66;;;10.61;63.47
10476;BME280;26166;48.264;11.436;2023-03-14T15:19:19;94807.63;;;10.61;62.96
10476;BME280;26166;48.264;11.436;2023-03-14T15:22:20;94819.13;;;10.60;62.58
10476;BME280;26166;48.264;11.436;2023-03-14T15:25:20;94814.28;;;10.57;62.07
10476;BME280;26166;48.264;11.436;2023-03-14T15:28:22;94823.38;;;10.54;61.30
10476;BME280;26166;48.264;11.436;2023-03-14T15:31:22;94835.88;;;10.52;61.03
10476;BME280;26166;48.264;11.436;2023-03-14T15:34:22;94838.72;;;10.51;60.81
10476;BME280;26166;48.264;11.436;2023-03-14T15:37:22;94840.72;;;10.49;60.80
10476;BME280;26166;48.264;11.436;2023-03-14T15:40:23;94853.84;;;10.49;60.79
10476;BME280;26166;48.264;11.436;2023-03-14T15:43:24;94854.69;;;10.49;60.65
10476;BME280;26166;48.264;11.436;2023-03-14T15:46:24;94862.34;;;10.51;60.09
10476;BME280;26166;48.264;11.436;2023-03-14T15:49:24;94873.25;;;10.48;60.09
10476;BME280;26166;48.264;11.436;2023-03-14T15:52:24;94886.19;;;10.49;60.75
10476;BME280;26166;48.264;11.436;2023-03-14T15:55:25;94888.59;;;10.51;59.73
10476;BME280;26166;48.264;11.436;2023-03-14T15:58:25;94889.41;;;10.51;59.69
10476;BME280;26166;48.264;11.436;2023-03-14T16:01:26;94889.00;;;10.48;59.03
10476;BME280;26166;48.264;11.436;2023-03-14T16:04:26;94912.63;;;10.48;58.90
10476;BME280;26166;48.264;11.436;2023-03-14T16:07:27;94932.81;;;10.47;58.38
10476;BME280;26166;48.264;11.436;2023-03-14T16:10:27;94929.00;;;10.50;57.99
10476;BME280;26166;48.264;11.436;2023-03-14T16:13:27;94957.88;;;10.50;56.85
10476;BME280;26166;48.264;11.436;2023-03-14T16:16:28;94955.44;;;10.48;55.63
10476;BME280;26166;48.264;11.436;2023-03-14T16:19:29;94960.69;;;10.48;55.46
10476;BME280;26166;48.264;11.436;2023-03-14T16:22:30;94964.94;;;10.49;55.52
10476;BME280;26166;48.264;11.436;2023-03-14T16:25:34;94969.38;;;10.49;55.07
10476;BME280;26166;48.264;11.436;2023-03-14T16:28:34;94994.00;;;10.48;54.81
10476;BME280;26166;48.264;11.436;2023-03-14T16:31:35;94989.56;;;10.48;54.92
10476;BME280;26166;48.264;11.436;2023-03-14T16:34:41;94981.28;;;10.45;54.91
10476;BME280;26166;48.264;11.436;2023-03-14T16:37:42;94997.66;;;10.47;54.82
10476;BME280;26166;48.264;11.436;2023-03-14T16:40:42;95001.28;;;10.46;54.64
10476;BME280;26166;48.264;11.436;2023-03-14T16:43:42;95004.09;;;10.44;53.99
10476;BME280;26166;48.264;11.436;2023-03-14T16:46:43;95019.84;;;10.44;54.04
10476;BME280;26166;48.264;11.436;2023-03-14T16:49:43;95030.16;;;10.46;53.96
10476;BME280;26166;48.264;11.436;2023-03-14T16:52:43;95041.25;;;10.41;53.60
10476;BME280;26166;48.264;11.436;2023-03-14T16:55:46;95052.34;;;10.43;53.94
10476;BME280;26166;48.264;11.436;2023-03-14T16:58:46;95063.66;;;10.44;53.97
10476;BME280;26166;48.264;11.436;2023-03-14T17:01:47;95073.56;;;10.42;53.56
10476;BME280;26166;48.264;11.436;2023-03-14T17:04:50;95082.44;;;10.41;53.87